createdAt,value
2018-04-13T00:01:02.115Z,999.7
2018-04-13T00:02:11.829Z,999.71
2018-04-13T00:03:21.806Z,999.75
2018-04-13T00:04:31.774Z,999.77
2018-04-13T00:05:41.747Z,999.77
2018-04-13T00:06:51.197Z,999.74
2018-04-13T00:08:01.171Z,999.72
2018-04-13T00:09:10.881Z,999.72
2018-04-13T00:10:20.338Z,999.68
2018-04-13T00:11:30.324Z,999.72
2018-04-13T00:12:40.302Z,999.73
2018-04-13T00:13:50.326Z,999.7
2018-04-13T00:15:00.284Z,999.68
2018-04-13T00:16:10.010Z,999.69
2018-04-13T00:17:19.456Z,999.69
2018-04-13T00:18:29.432Z,999.69
2018-04-13T00:19:39.400Z,999.69
2018-04-13T00:20:49.385Z,999.72
2018-04-13T00:21:59.362Z,999.69
2018-04-13T00:23:09.350Z,999.67
2018-04-13T00:24:19.315Z,999.69
2018-04-13T00:25:29.020Z,999.71
2018-04-13T00:26:38.737Z,999.7
2018-04-13T00:27:48.715Z,999.7
2018-04-13T00:28:58.697Z,999.57
2018-04-13T00:30:08.428Z,999.65
2018-04-13T00:31:18.405Z,999.67
2018-04-13T00:32:28.373Z,999.65
2018-04-13T00:33:38.344Z,999.65
2018-04-13T00:34:48.318Z,999.69
2018-04-13T00:35:58.283Z,999.67
2018-04-13T00:37:08.472Z,999.65
2018-04-13T00:38:18.459Z,999.7
2018-04-13T00:39:28.432Z,999.65
2018-04-13T00:40:37.889Z,999.69
2018-04-13T00:41:47.920Z,999.71
2018-04-13T00:42:57.896Z,999.71
2018-04-13T00:44:07.603Z,999.69
2018-04-13T00:45:17.585Z,999.66
2018-04-13T00:46:27.562Z,999.66
2018-04-13T00:47:37.540Z,999.67
2018-04-13T00:48:47.249Z,999.7
2018-04-13T00:49:56.704Z,999.62
2018-04-13T00:51:06.690Z,999.64
2018-04-13T00:52:16.409Z,999.64
2018-04-13T00:53:26.120Z,999.65
2018-04-13T00:54:35.820Z,999.64
2018-04-13T00:55:45.786Z,999.66
2018-04-13T00:56:55.745Z,999.66
2018-04-13T00:58:05.465Z,999.64
2018-04-13T00:59:15.418Z,999.64
2018-04-13T01:00:24.878Z,999.59
2018-04-13T01:01:34.855Z,999.6
2018-04-13T01:02:44.843Z,999.56
2018-04-13T01:03:54.808Z,999.58
2018-04-13T01:05:04.520Z,999.5
2018-04-13T01:06:14.493Z,999.54
2018-04-13T01:07:24.213Z,999.51
2018-04-13T01:08:34.184Z,999.51
2018-04-13T01:09:44.211Z,999.52
2018-04-13T01:10:54.188Z,999.48
2018-04-13T01:12:03.638Z,999.49
2018-04-13T01:13:13.391Z,999.51
2018-04-13T01:14:23.353Z,999.47
2018-04-13T01:15:33.094Z,999.53
2018-04-13T01:16:43.059Z,999.46
2018-04-13T01:17:53.016Z,999.55
2018-04-13T01:19:02.985Z,999.54
2018-04-13T01:20:12.951Z,999.51
2018-04-13T01:21:22.919Z,999.5
2018-04-13T01:22:32.896Z,999.46
2018-04-13T01:23:42.864Z,999.49
2018-04-13T01:24:52.838Z,999.5
2018-04-13T01:26:02.804Z,999.54
2018-04-13T01:27:12.764Z,999.48
2018-04-13T01:28:22.987Z,999.51
2018-04-13T01:29:32.970Z,999.46
2018-04-13T01:30:42.937Z,999.43
2018-04-13T01:31:52.902Z,999.51
2018-04-13T01:33:02.860Z,999.48
2018-04-13T01:34:12.830Z,999.51
2018-04-13T01:35:22.817Z,999.53
2018-04-13T01:36:33.018Z,999.52
2018-04-13T01:37:43.000Z,999.5
2018-04-13T01:38:52.967Z,999.52
2018-04-13T01:40:02.668Z,999.46
2018-04-13T01:41:12.377Z,999.54
2018-04-13T01:42:22.343Z,999.47
2018-04-13T01:43:32.356Z,999.5
2018-04-13T01:44:42.344Z,999.47
2018-04-13T01:45:52.056Z,999.48
2018-04-13T01:47:01.775Z,999.48
2018-04-13T01:48:11.735Z,999.45
2018-04-13T01:49:21.181Z,999.46
2018-04-13T01:50:31.168Z,999.38
2018-04-13T01:51:41.139Z,999.42
2018-04-13T01:52:51.100Z,999.42
2018-04-13T01:54:00.821Z,999.37
2018-04-13T01:55:10.792Z,999.37
2018-04-13T01:56:20.768Z,999.41
2018-04-13T01:57:30.736Z,999.37
2018-04-13T01:58:40.447Z,999.38
2018-04-13T01:59:50.145Z,999.4
2018-04-13T02:01:00.120Z,999.32
2018-04-13T02:02:10.093Z,999.34
2018-04-13T02:03:20.064Z,999.34
2018-04-13T02:04:30.037Z,999.37
2018-04-13T02:05:40.007Z,999.33
2018-04-13T02:06:49.718Z,999.32
2018-04-13T02:07:59.687Z,999.33
2018-04-13T02:09:09.659Z,999.37
2018-04-13T02:10:19.356Z,999.34
2018-04-13T02:11:29.058Z,999.36
2018-04-13T02:12:39.048Z,999.34
2018-04-13T02:13:49.016Z,999.38
2018-04-13T02:14:58.735Z,999.35
2018-04-13T02:16:08.444Z,999.35
2018-04-13T02:17:18.166Z,999.38
2018-04-13T02:18:28.127Z,999.34
2018-04-13T02:19:38.093Z,999.34
2018-04-13T02:20:48.064Z,999.28
2018-04-13T02:21:58.074Z,999.27
2018-04-13T02:23:08.042Z,999.26
2018-04-13T02:24:18.014Z,999.26
2018-04-13T02:25:27.978Z,999.22
2018-04-13T02:26:37.428Z,999.24
2018-04-13T02:27:47.403Z,999.26
2018-04-13T02:28:57.391Z,999.25
2018-04-13T02:30:07.106Z,999.31
2018-04-13T02:31:16.822Z,999.24
2018-04-13T02:32:26.939Z,999.25
2018-04-13T02:33:36.929Z,999.27
2018-04-13T02:34:46.934Z,999.23
2018-04-13T02:35:56.932Z,999.3
2018-04-13T02:37:06.910Z,999.28
2018-04-13T02:38:16.620Z,999.29
2018-04-13T02:39:26.605Z,999.3
2018-04-13T02:40:36.566Z,999.3
2018-04-13T02:41:46.538Z,999.34
2018-04-13T02:42:56.512Z,999.29
2018-04-13T02:44:06.481Z,999.32
2018-04-13T02:45:15.949Z,999.32
2018-04-13T02:46:25.927Z,999.39
2018-04-13T02:47:35.894Z,999.42
2018-04-13T02:48:45.609Z,999.38
2018-04-13T02:49:55.581Z,999.39
2018-04-13T02:51:05.554Z,999.36
2018-04-13T02:52:15.537Z,999.43
2018-04-13T02:53:25.525Z,999.48
2018-04-13T02:54:35.492Z,999.44
2018-04-13T02:55:45.492Z,999.46
2018-04-13T02:56:55.475Z,999.5
2018-04-13T02:58:05.436Z,999.49
2018-04-13T02:59:15.154Z,999.52
2018-04-13T03:00:25.145Z,999.5
2018-04-13T03:01:34.597Z,999.46
2018-04-13T03:02:44.590Z,999.5
2018-04-13T03:03:54.305Z,999.47
2018-04-13T03:05:04.281Z,999.44
2018-04-13T03:06:14.270Z,999.44
2018-04-13T03:07:24.253Z,999.46
2018-04-13T03:08:34.126Z,999.47
2018-04-13T03:09:44.094Z,999.5
2018-04-13T03:10:54.069Z,999.46
2018-04-13T03:12:04.046Z,999.46
2018-04-13T03:13:13.493Z,999.48
2018-04-13T03:14:23.458Z,999.46
2018-04-13T03:15:33.433Z,999.49
2018-04-13T03:16:43.392Z,999.46
2018-04-13T03:17:53.361Z,999.46
2018-04-13T03:19:03.331Z,999.5
2018-04-13T03:20:13.326Z,999.48
2018-04-13T03:21:23.294Z,999.5
2018-04-13T03:22:33.257Z,999.48
2018-04-13T03:23:43.242Z,999.49
2018-04-13T03:24:52.694Z,999.47
2018-04-13T03:26:02.661Z,999.46
2018-04-13T03:27:12.109Z,999.5
2018-04-13T03:28:21.814Z,999.48
2018-04-13T03:29:31.010Z,999.49
2018-04-13T03:30:40.466Z,999.57
2018-04-13T03:31:49.923Z,999.53
2018-04-13T03:32:59.377Z,999.53
2018-04-13T03:34:09.348Z,999.48
2018-04-13T03:35:19.306Z,999.47
2018-04-13T03:36:28.747Z,999.51
2018-04-13T03:37:38.201Z,999.52
2018-04-13T03:38:47.911Z,999.48
2018-04-13T03:39:57.869Z,999.55
2018-04-13T03:41:07.832Z,999.57
2018-04-13T03:42:17.798Z,999.58
2018-04-13T03:43:27.781Z,999.62
2018-04-13T03:44:37.490Z,999.66
2018-04-13T03:45:47.467Z,999.7
2018-04-13T03:46:57.442Z,999.71
2018-04-13T03:48:07.476Z,999.7
2018-04-13T03:49:17.451Z,999.74
2018-04-13T03:50:27.433Z,999.74
2018-04-13T03:51:37.423Z,999.73
2018-04-13T03:52:47.387Z,999.7
2018-04-13T03:53:57.098Z,999.73
2018-04-13T03:55:07.061Z,999.75
2018-04-13T03:56:16.769Z,999.83
2018-04-13T03:57:26.730Z,999.79
2018-04-13T03:58:36.702Z,999.8
2018-04-13T03:59:46.431Z,999.9
2018-04-13T04:00:56.405Z,999.96
2018-04-13T04:02:06.386Z,999.95
2018-04-13T04:03:16.256Z,999.91
2018-04-13T04:04:26.227Z,999.91
2018-04-13T04:05:36.190Z,999.89
2018-04-13T04:06:46.179Z,999.89
2018-04-13T04:07:55.889Z,999.88
2018-04-13T04:09:05.344Z,999.87
2018-04-13T04:10:15.053Z,999.86
2018-04-13T04:11:24.780Z,999.85
2018-04-13T04:12:34.759Z,999.85
2018-04-13T04:13:44.216Z,999.89
2018-04-13T04:14:53.929Z,999.87
2018-04-13T04:16:03.675Z,999.91
2018-04-13T04:17:13.396Z,999.93
2018-04-13T04:18:23.112Z,999.92
2018-04-13T04:19:32.845Z,999.9
2018-04-13T04:20:42.800Z,999.87
2018-04-13T04:21:52.759Z,999.92
2018-04-13T04:23:02.478Z,999.93
2018-04-13T04:24:12.496Z,999.85
2018-04-13T04:25:22.570Z,999.97
2018-04-13T04:26:32.026Z,999.98
2018-04-13T04:27:42.023Z,999.96
2018-04-13T04:28:52.013Z,1000.02
2018-04-13T04:30:01.721Z,1000.07
2018-04-13T04:31:11.716Z,1000.08
2018-04-13T04:32:21.685Z,1000.06
2018-04-13T04:33:31.708Z,1000.06
2018-04-13T04:34:41.697Z,1000.12
2018-04-13T04:35:51.670Z,1000.02
2018-04-13T04:37:01.670Z,1000.05
2018-04-13T04:38:11.382Z,1000.13
2018-04-13T04:39:21.357Z,1000.07
2018-04-13T04:40:31.323Z,1000.08
2018-04-13T04:41:41.281Z,1000.11
2018-04-13T04:42:50.988Z,1000.1
2018-04-13T04:44:00.709Z,1000.06
2018-04-13T04:45:10.689Z,1000.03
2018-04-13T04:46:20.397Z,1000.03
2018-04-13T04:47:29.853Z,1000.06
2018-04-13T04:48:39.832Z,1000.04
2018-04-13T04:49:49.547Z,1000.02
2018-04-13T04:50:59.525Z,1000.04
2018-04-13T04:52:09.500Z,1000.03
2018-04-13T04:53:19.230Z,1000.07
2018-04-13T04:54:29.200Z,1000.08
2018-04-13T04:55:39.175Z,1000.12
2018-04-13T04:56:49.139Z,1000.12
2018-04-13T04:57:59.117Z,1000.09
2018-04-13T04:59:08.846Z,1000.16
2018-04-13T05:00:18.825Z,1000.17
2018-04-13T05:01:28.525Z,1000.18
2018-04-13T05:02:38.503Z,1000.22
2018-04-13T05:03:48.210Z,1000.21
2018-04-13T05:04:58.171Z,1000.29
2018-04-13T05:06:07.891Z,1000.29
2018-04-13T05:07:17.870Z,1000.38
2018-04-13T05:08:27.320Z,1000.4
2018-04-13T05:09:37.298Z,1000.4
2018-04-13T05:10:47.271Z,1000.42
2018-04-13T05:11:57.243Z,1000.41
2018-04-13T05:13:07.336Z,1000.47
2018-04-13T05:14:17.319Z,1000.41
2018-04-13T05:15:27.292Z,1000.56
2018-04-13T05:16:37.272Z,1000.54
2018-04-13T05:17:46.983Z,1000.55
2018-04-13T05:18:56.703Z,1000.6
2018-04-13T05:20:06.820Z,1000.65
2018-04-13T05:21:16.537Z,1000.66
2018-04-13T05:22:26.260Z,1000.68
2018-04-13T05:23:36.463Z,1000.63
2018-04-13T05:24:46.453Z,1000.57
2018-04-13T05:25:56.424Z,1000.61
2018-04-13T05:27:05.891Z,1000.49
2018-04-13T05:28:15.620Z,1000.53
2018-04-13T05:29:25.632Z,1000.54
2018-04-13T05:30:35.345Z,1000.58
2018-04-13T05:31:45.320Z,1000.49
2018-04-13T05:32:55.316Z,1000.49
2018-04-13T05:34:05.292Z,1000.49
2018-04-13T05:35:15.379Z,1000.5
2018-04-13T05:36:25.452Z,1000.49
2018-04-13T05:37:35.420Z,1000.53
2018-04-13T05:38:45.215Z,1000.54
2018-04-13T05:39:55.190Z,1000.51
2018-04-13T05:41:05.177Z,1000.49
2018-04-13T05:42:14.645Z,1000.5
2018-04-13T05:43:24.610Z,1000.56
2018-04-13T05:44:34.335Z,1000.53
2018-04-13T05:45:44.307Z,1000.58
2018-04-13T05:46:54.020Z,1000.58
2018-04-13T05:48:04.002Z,1000.54
2018-04-13T05:49:13.988Z,1000.53
2018-04-13T05:50:24.011Z,1000.54
2018-04-13T05:51:33.728Z,1000.52
2018-04-13T05:52:43.716Z,1000.54
2018-04-13T05:53:53.729Z,1000.57
2018-04-13T05:55:03.672Z,1000.52
2018-04-13T05:56:13.664Z,1000.48
2018-04-13T05:57:23.624Z,1000.49
2018-04-13T05:58:33.351Z,1000.55
2018-04-13T05:59:43.338Z,1000.55
2018-04-13T06:00:53.307Z,1000.57
2018-04-13T06:02:03.328Z,1000.55
2018-04-13T06:03:13.309Z,1000.54
2018-04-13T06:04:23.267Z,1000.53
2018-04-13T06:05:33.245Z,1000.5
2018-04-13T06:06:43.258Z,1000.5
2018-04-13T06:07:52.997Z,1000.51
2018-04-13T06:09:02.825Z,1000.53
2018-04-13T06:10:12.635Z,1000.5
2018-04-13T06:11:22.083Z,1000.52
2018-04-13T06:12:31.298Z,1000.49
2018-04-13T06:13:41.278Z,1000.5
2018-04-13T06:14:50.743Z,1000.53
2018-04-13T06:16:00.712Z,1000.55
2018-04-13T06:17:10.442Z,1000.58
2018-04-13T06:18:20.429Z,1000.52
2018-04-13T06:19:30.144Z,1000.56
2018-04-13T06:20:40.147Z,1000.55
2018-04-13T06:21:50.128Z,1000.64
2018-04-13T06:22:59.886Z,1000.67
2018-04-13T06:24:09.352Z,1000.73
2018-04-13T06:25:19.671Z,1000.74
2018-04-13T06:26:29.662Z,1000.67
2018-04-13T06:27:39.646Z,1000.78
2018-04-13T06:28:49.627Z,1000.79
2018-04-13T06:29:59.578Z,1000.87
2018-04-13T06:31:09.567Z,1000.94
2018-04-13T06:32:19.552Z,1000.93
2018-04-13T06:33:29.020Z,1000.87
2018-04-13T06:34:38.998Z,1000.87
2018-04-13T06:35:48.983Z,1000.83
2018-04-13T06:36:58.948Z,1000.89
2018-04-13T06:38:08.920Z,1001.05
2018-04-13T06:39:18.924Z,1001.07
2018-04-13T06:40:28.652Z,1001.19
2018-04-13T06:41:38.391Z,1001.19
2018-04-13T06:42:48.118Z,1001.21
2018-04-13T06:43:58.121Z,1001.24
2018-04-13T06:45:08.107Z,1001.42
2018-04-13T06:46:17.833Z,1001.51
2018-04-13T06:47:27.031Z,1001.51
2018-04-13T06:48:37.022Z,1001.56
2018-04-13T06:49:47.200Z,1001.59
2018-04-13T06:50:57.191Z,1001.67
2018-04-13T06:52:07.004Z,1001.71
2018-04-13T06:53:17.012Z,1001.73
2018-04-13T06:54:26.989Z,1001.72
2018-04-13T06:55:36.982Z,1001.69
2018-04-13T06:56:47.066Z,1001.74
2018-04-13T06:57:56.707Z,1001.75
2018-04-13T06:59:06.684Z,1001.78
2018-04-13T07:00:16.665Z,1001.92
2018-04-13T07:01:26.379Z,1001.92
2018-04-13T07:02:36.366Z,1001.89
2018-04-13T07:03:46.096Z,1001.85
2018-04-13T07:04:55.567Z,1001.83
2018-04-13T07:06:05.546Z,1001.82
2018-04-13T07:07:15.538Z,1001.88
2018-04-13T07:08:25.571Z,1001.9
2018-04-13T07:09:35.622Z,1001.91
2018-04-13T07:10:45.338Z,1001.87
2018-04-13T07:11:55.313Z,1001.83
2018-04-13T07:13:05.306Z,1001.82
2018-04-13T07:14:15.290Z,1001.8
2018-04-13T07:15:25.068Z,1001.78
2018-04-13T07:16:34.291Z,1001.74
2018-04-13T07:17:44.022Z,1001.72
2018-04-13T07:18:53.495Z,1001.63
2018-04-13T07:20:03.501Z,1001.72
2018-04-13T07:21:13.718Z,1001.73
2018-04-13T07:22:23.197Z,1001.77
2018-04-13T07:23:32.920Z,1001.76
2018-04-13T07:24:42.630Z,1001.79
2018-04-13T07:25:52.663Z,1001.82
2018-04-13T07:27:02.622Z,1001.83
2018-04-13T07:28:12.587Z,1001.84
2018-04-13T07:29:22.325Z,1001.92
2018-04-13T07:30:32.299Z,1001.92
2018-04-13T07:31:42.038Z,1001.89
2018-04-13T07:32:53.467Z,1001.98
2018-04-13T07:34:03.411Z,1002
2018-04-13T07:35:13.931Z,1002.06
2018-04-13T07:36:24.303Z,1002.06
2018-04-13T07:37:34.287Z,1002.13
2018-04-13T07:38:44.274Z,1002.15
2018-04-13T07:39:54.246Z,1002.18
2018-04-13T07:41:05.358Z,1002.17
2018-04-13T07:42:15.108Z,1002.22
2018-04-13T07:43:25.146Z,1002.23
2018-04-13T07:44:35.136Z,1002.3
2018-04-13T07:45:45.167Z,1002.27
2018-04-13T07:46:55.281Z,1002.24
2018-04-13T07:48:05.319Z,1002.18
2018-04-13T07:49:15.320Z,1002.22
2018-04-13T07:50:25.592Z,1002.3
2018-04-13T07:51:35.595Z,1002.3
2018-04-13T07:52:46.950Z,1002.34
2018-04-13T07:53:56.956Z,1002.36
2018-04-13T07:55:06.922Z,1002.41
2018-04-13T07:56:16.630Z,1002.4
2018-04-13T07:57:26.609Z,1002.35
2018-04-13T07:58:36.599Z,1002.24
2018-04-13T07:59:46.322Z,1002.17
2018-04-13T08:00:56.967Z,1002.09
2018-04-13T08:02:07.698Z,1002.04
2018-04-13T08:03:17.690Z,1002.04
2018-04-13T08:04:27.709Z,1002.01
2018-04-13T08:05:37.563Z,1002.05
2018-04-13T08:06:47.752Z,1002.06
2018-04-13T08:07:58.010Z,1002.03
2018-04-13T08:09:07.966Z,1002.04
2018-04-13T08:10:18.442Z,1002.04
2018-04-13T08:11:28.467Z,1002
2018-04-13T08:12:38.835Z,1001.93
2018-04-13T08:13:48.835Z,1001.89
2018-04-13T08:14:58.852Z,1001.83
2018-04-13T08:16:09.389Z,1001.73
2018-04-13T08:17:18.887Z,1001.61
2018-04-13T08:18:28.881Z,1001.6
2018-04-13T08:19:38.877Z,1001.47
2018-04-13T08:20:48.649Z,1001.36
2018-04-13T08:21:58.413Z,1001.41
2018-04-13T08:23:08.378Z,1001.4
2018-04-13T08:24:18.185Z,1001.37
2018-04-13T08:25:27.925Z,1001.33
2018-04-13T08:26:37.682Z,1001.39
2018-04-13T08:27:47.664Z,1001.4
2018-04-13T08:28:57.686Z,1001.43
2018-04-13T08:30:07.756Z,1001.36
2018-04-13T08:31:17.835Z,1001.4
2018-04-13T08:32:27.599Z,1001.37
2018-04-13T08:33:37.332Z,1001.36
2018-04-13T08:34:47.449Z,1001.39
2018-04-13T08:35:57.491Z,1001.35
2018-04-13T08:37:07.510Z,1001.36
2018-04-13T08:38:17.492Z,1001.38
2018-04-13T08:39:27.725Z,1001.38
2018-04-13T08:40:37.540Z,1001.41
2018-04-13T08:41:47.619Z,1001.47
2018-04-13T08:42:57.406Z,1001.39
